sensor_id;sensor_type;location;lat;lon;timestamp;temperature;humidity
39325;DHT22;25037;49.488;9.900;2023-06-22T00:00:52;21.20;71.40
39325;DHT22;25037;49.488;9.900;2023-06-22T00:03:20;21.20;71.40
39325;DHT22;25037;49.488;9.900;2023-06-22T00:05:48;21.30;71.50
39325;DHT22;25037;49.488;9.900;2023-06-22T00:08:17;21.30;71.50
39325;DHT22;25037;49.488;9.900;2023-06-22T00:10:44;21.30;71.70
39325;DHT22;25037;49.488;9.900;2023-06-22T00:13:12;21.30;71.70
39325;DHT22;25037;49.488;9.900;2023-06-22T00:15:40;21.30;71.80
39325;DHT22;25037;49.488;9.900;2023-06-22T00:18:09;21.30;71.80
39325;DHT22;25037;49.488;9.900;2023-06-22T00:20:36;21.20;71.90
39325;DHT22;25037;49.488;9.900;2023-06-22T00:23:05;21.10;72.20
39325;DHT22;25037;49.488;9.900;2023-06-22T00:25:38;21.00;72.30
39325;DHT22;25037;49.488;9.900;2023-06-22T00:28:08;21.00;72.50
39325;DHT22;25037;49.488;9.900;2023-06-22T00:30:35;21.10;72.50
39325;DHT22;25037;49.488;9.900;2023-06-22T00:33:02;21.10;72.60
39325;DHT22;25037;49.488;9.900;2023-06-22T00:35:29;21.20;72.50
39325;DHT22;25037;49.488;9.900;2023-06-22T00:37:57;21.20;72.50
39325;DHT22;25037;49.488;9.900;2023-06-22T00:40:28;21.20;72.40
39325;DHT22;25037;49.488;9.900;2023-06-22T00:42:55;21.20;72.40
39325;DHT22;25037;49.488;9.900;2023-06-22T00:45:23;21.30;72.40
39325;DHT22;25037;49.488;9.900;2023-06-22T00:47:56;21.30;72.30
39325;DHT22;25037;49.488;9.900;2023-06-22T00:50:26;21.30;72.30
39325;DHT22;25037;49.488;9.900;2023-06-22T00:52:56;21.30;72.30
39325;DHT22;25037;49.488;9.900;2023-06-22T00:55:23;21.30;72.30
39325;DHT22;25037;49.488;9.900;2023-06-22T00:57:50;21.30;72.20
39325;DHT22;25037;49.488;9.900;2023-06-22T01:00:18;21.20;72.20
39325;DHT22;25037;49.488;9.900;2023-06-22T01:02:46;21.20;72.20
39325;DHT22;25037;49.488;9.900;2023-06-22T01:05:14;21.20;72.30
39325;DHT22;25037;49.488;9.900;2023-06-22T01:13:01;21.20;72.20
39325;DHT22;25037;49.488;9.900;2023-06-22T01:15:30;21.20;72.20
39325;DHT22;25037;49.488;9.900;2023-06-22T01:17:59;21.10;71.90
39325;DHT22;25037;49.488;9.900;2023-06-22T01:20:28;21.10;72.00
39325;DHT22;25037;49.488;9.900;2023-06-22T01:28:46;21.10;72.30
39325;DHT22;25037;49.488;9.900;2023-06-22T01:31:16;21.00;72.40
39325;DHT22;25037;49.488;9.900;2023-06-22T01:33:48;21.00;72.30
39325;DHT22;25037;49.488;9.900;2023-06-22T01:36:17;21.00;72.30
39325;DHT22;25037;49.488;9.900;2023-06-22T01:38:44;21.00;72.30
39325;DHT22;25037;49.488;9.900;2023-06-22T01:41:12;21.00;72.30
39325;DHT22;25037;49.488;9.900;2023-06-22T01:43:40;21.00;72.30
39325;DHT22;25037;49.488;9.900;2023-06-22T01:46:07;21.00;72.40
39325;DHT22;25037;49.488;9.900;2023-06-22T01:48:34;20.90;72.50
39325;DHT22;25037;49.488;9.900;2023-06-22T01:51:02;21.00;72.60
39325;DHT22;25037;49.488;9.900;2023-06-22T01:53:29;21.00;72.60
39325;DHT22;25037;49.488;9.900;2023-06-22T01:55:56;21.00;72.80
39325;DHT22;25037;49.488;9.900;2023-06-22T01:58:27;21.10;72.80
39325;DHT22;25037;49.488;9.900;2023-06-22T02:01:06;21.10;72.90
39325;DHT22;25037;49.488;9.900;2023-06-22T02:03:44;21.20;73.00
39325;DHT22;25037;49.488;9.900;2023-06-22T02:06:21;21.10;73.00
39325;DHT22;25037;49.488;9.900;2023-06-22T02:08:55;21.10;73.20
39325;DHT22;25037;49.488;9.900;2023-06-22T02:11:26;21.10;73.30
39325;DHT22;25037;49.488;9.900;2023-06-22T02:13:55;21.00;73.50
39325;DHT22;25037;49.488;9.900;2023-06-22T02:16:23;21.00;73.60
39325;DHT22;25037;49.488;9.900;2023-06-22T02:18:50;20.90;73.70
39325;DHT22;25037;49.488;9.900;2023-06-22T02:21:18;20.90;74.00
39325;DHT22;25037;49.488;9.900;2023-06-22T02:23:45;20.90;74.10
39325;DHT22;25037;49.488;9.900;2023-06-22T02:26:12;20.90;74.20
39325;DHT22;25037;49.488;9.900;2023-06-22T02:28:39;20.90;74.20
39325;DHT22;25037;49.488;9.900;2023-06-22T02:31:06;20.90;74.30
39325;DHT22;25037;49.488;9.900;2023-06-22T02:33:33;21.00;74.40
39325;DHT22;25037;49.488;9.900;2023-06-22T02:35:59;21.00;74.40
39325;DHT22;25037;49.488;9.900;2023-06-22T02:38:26;21.00;74.30
39325;DHT22;25037;49.488;9.900;2023-06-22T02:40:53;21.00;74.30
39325;DHT22;25037;49.488;9.900;2023-06-22T02:43:19;21.00;74.30
39325;DHT22;25037;49.488;9.900;2023-06-22T02:45:47;21.00;74.30
39325;DHT22;25037;49.488;9.900;2023-06-22T02:48:13;21.00;74.30
39325;DHT22;25037;49.488;9.900;2023-06-22T02:50:40;21.00;74.30
39325;DHT22;25037;49.488;9.900;2023-06-22T02:53:07;21.00;74.30
39325;DHT22;25037;49.488;9.900;2023-06-22T02:55:33;21.00;74.30
39325;DHT22;25037;49.488;9.900;2023-06-22T02:58:00;21.00;74.40
39325;DHT22;25037;49.488;9.900;2023-06-22T03:00:31;21.00;74.50
39325;DHT22;25037;49.488;9.900;2023-06-22T03:02:58;21.00;74.60
39325;DHT22;25037;49.488;9.900;2023-06-22T03:05:25;21.00;74.60
39325;DHT22;25037;49.488;9.900;2023-06-22T03:07:52;21.10;74.70
39325;DHT22;25037;49.488;9.900;2023-06-22T03:10:19;21.10;74.70
39325;DHT22;25037;49.488;9.900;2023-06-22T03:12:46;21.20;74.70
39325;DHT22;25037;49.488;9.900;2023-06-22T03:15:13;21.20;74.80
39325;DHT22;25037;49.488;9.900;2023-06-22T03:17:40;21.20;74.80
39325;DHT22;25037;49.488;9.900;2023-06-22T03:20:08;21.20;74.70
39325;DHT22;25037;49.488;9.900;2023-06-22T03:22:37;21.20;74.70
39325;DHT22;25037;49.488;9.900;2023-06-22T03:25:05;21.20;74.80
39325;DHT22;25037;49.488;9.900;2023-06-22T03:27:37;21.20;74.80
39325;DHT22;25037;49.488;9.900;2023-06-22T03:30:05;21.30;74.80
39325;DHT22;25037;49.488;9.900;2023-06-22T03:32:31;21.30;74.80
39325;DHT22;25037;49.488;9.900;2023-06-22T03:34:58;21.30;74.70
39325;DHT22;25037;49.488;9.900;2023-06-22T03:37:26;21.30;74.60
39325;DHT22;25037;49.488;9.900;2023-06-22T03:39:53;21.40;74.50
39325;DHT22;25037;49.488;9.900;2023-06-22T03:42:20;21.40;74.40
39325;DHT22;25037;49.488;9.900;2023-06-22T03:44:47;21.50;74.30
39325;DHT22;25037;49.488;9.900;2023-06-22T03:47:13;21.60;74.20
39325;DHT22;25037;49.488;9.900;2023-06-22T03:49:40;21.70;74.00
39325;DHT22;25037;49.488;9.900;2023-06-22T03:52:07;21.80;73.80
39325;DHT22;25037;49.488;9.900;2023-06-22T03:54:34;21.80;73.60
39325;DHT22;25037;49.488;9.900;2023-06-22T03:57:01;21.90;73.40
39325;DHT22;25037;49.488;9.900;2023-06-22T03:59:27;22.00;73.40
39325;DHT22;25037;49.488;9.900;2023-06-22T04:01:54;22.10;73.20
39325;DHT22;25037;49.488;9.900;2023-06-22T04:04:21;22.20;73.10
39325;DHT22;25037;49.488;9.900;2023-06-22T04:06:47;22.30;72.90
39325;DHT22;25037;49.488;9.900;2023-06-22T04:09:14;22.30;72.60
39325;DHT22;25037;49.488;9.900;2023-06-22T04:11:41;22.40;72.40
39325;DHT22;25037;49.488;9.900;2023-06-22T04:14:07;22.60;72.20
39325;DHT22;25037;49.488;9.900;2023-06-22T04:16:34;22.70;72.00
39325;DHT22;25037;49.488;9.900;2023-06-22T04:19:01;22.80;71.70
39325;DHT22;25037;49.488;9.900;2023-06-22T04:21:27;22.90;71.40
39325;DHT22;25037;49.488;9.900;2023-06-22T04:23:54;22.90;71.30
39325;DHT22;25037;49.488;9.900;2023-06-22T04:26:21;22.90;71.20
39325;DHT22;25037;49.488;9.900;2023-06-22T04:28:48;23.00;71.20
39325;DHT22;25037;49.488;9.900;2023-06-22T04:31:18;23.00;71.00
39325;DHT22;25037;49.488;9.900;2023-06-22T04:33:48;23.00;70.90
39325;DHT22;25037;49.488;9.900;2023-06-22T04:36:17;23.10;70.60
39325;DHT22;25037;49.488;9.900;2023-06-22T04:38:44;23.20;70.40
39325;DHT22;25037;49.488;9.900;2023-06-22T04:41:11;23.30;70.10
39325;DHT22;25037;49.488;9.900;2023-06-22T04:43:40;23.70;69.50
39325;DHT22;25037;49.488;9.900;2023-06-22T04:46:07;24.30;68.40
39325;DHT22;25037;49.488;9.900;2023-06-22T04:48:34;25.20;66.70
39325;DHT22;25037;49.488;9.900;2023-06-22T04:51:01;26.50;64.20
39325;DHT22;25037;49.488;9.900;2023-06-22T04:53:31;27.80;61.90
39325;DHT22;25037;49.488;9.900;2023-06-22T04:55:58;29.10;59.50
39325;DHT22;25037;49.488;9.900;2023-06-22T04:58:25;30.00;57.60
39325;DHT22;25037;49.488;9.900;2023-06-22T05:00:55;30.90;55.80
39325;DHT22;25037;49.488;9.900;2023-06-22T05:03:25;31.90;53.60
39325;DHT22;25037;49.488;9.900;2023-06-22T05:05:52;33.00;51.40
39325;DHT22;25037;49.488;9.900;2023-06-22T05:08:20;33.90;49.70
39325;DHT22;25037;49.488;9.900;2023-06-22T05:10:46;34.80;48.00
39325;DHT22;25037;49.488;9.900;2023-06-22T05:13:30;35.50;46.80
39325;DHT22;25037;49.488;9.900;2023-06-22T05:15:56;36.30;45.40
39325;DHT22;25037;49.488;9.900;2023-06-22T05:18:28;37.00;44.00
39325;DHT22;25037;49.488;9.900;2023-06-22T05:20:57;37.50;42.50
39325;DHT22;25037;49.488;9.900;2023-06-22T05:23:24;37.90;41.60
39325;DHT22;25037;49.488;9.900;2023-06-22T05:25:51;38.30;40.90
39325;DHT22;25037;49.488;9.900;2023-06-22T05:28:18;38.40;40.10
39325;DHT22;25037;49.488;9.900;2023-06-22T05:30:49;37.40;41.20
39325;DHT22;25037;49.488;9.900;2023-06-22T05:33:16;35.90;43.10
39325;DHT22;25037;49.488;9.900;2023-06-22T05:35:42;34.70;44.30
39325;DHT22;25037;49.488;9.900;2023-06-22T05:38:09;34.00;45.30
39325;DHT22;25037;49.488;9.900;2023-06-22T05:40:36;34.40;44.80
39325;DHT22;25037;49.488;9.900;2023-06-22T05:43:02;36.00;42.50
39325;DHT22;25037;49.488;9.900;2023-06-22T05:45:29;37.00;40.80
39325;DHT22;25037;49.488;9.900;2023-06-22T05:47:56;37.10;40.90
39325;DHT22;25037;49.488;9.900;2023-06-22T05:50:23;37.30;40.50
39325;DHT22;25037;49.488;9.900;2023-06-22T05:52:50;38.60;38.60
39325;DHT22;25037;49.488;9.900;2023-06-22T05:55:16;39.70;37.00
39325;DHT22;25037;49.488;9.900;2023-06-22T05:57:45;40.70;35.70
39325;DHT22;25037;49.488;9.900;2023-06-22T06:00:12;41.40;34.80
39325;DHT22;25037;49.488;9.900;2023-06-22T06:02:40;42.00;34.10
39325;DHT22;25037;49.488;9.900;2023-06-22T06:05:11;42.40;33.50
39325;DHT22;25037;49.488;9.900;2023-06-22T06:07:44;43.00;32.60
39325;DHT22;25037;49.488;9.900;2023-06-22T06:10:12;43.20;32.10
39325;DHT22;25037;49.488;9.900;2023-06-22T06:12:39;43.30;32.00
39325;DHT22;25037;49.488;9.900;2023-06-22T06:15:06;43.30;31.70
39325;DHT22;25037;49.488;9.900;2023-06-22T06:20:15;43.20;31.60
39325;DHT22;25037;49.488;9.900;2023-06-22T06:22:42;43.10;31.80
39325;DHT22;25037;49.488;9.900;2023-06-22T06:25:09;42.80;31.70
39325;DHT22;25037;49.488;9.900;2023-06-22T06:27:36;42.10;32.20
39325;DHT22;25037;49.488;9.900;2023-06-22T06:30:03;40.90;33.40
39325;DHT22;25037;49.488;9.900;2023-06-22T06:32:30;39.90;34.70
39325;DHT22;25037;49.488;9.900;2023-06-22T06:34:57;38.70;36.20
39325;DHT22;25037;49.488;9.900;2023-06-22T06:37:24;38.20;37.00
39325;DHT22;25037;49.488;9.900;2023-06-22T06:39:50;37.70;37.60
39325;DHT22;25037;49.488;9.900;2023-06-22T06:42:17;37.10;38.40
39325;DHT22;25037;49.488;9.900;2023-06-22T06:44:45;36.70;38.90
39325;DHT22;25037;49.488;9.900;2023-06-22T06:47:12;36.10;39.70
39325;DHT22;25037;49.488;9.900;2023-06-22T06:49:39;35.80;40.30
39325;DHT22;25037;49.488;9.900;2023-06-22T06:52:06;35.60;40.70
39325;DHT22;25037;49.488;9.900;2023-06-22T06:54:33;35.20;41.10
39325;DHT22;25037;49.488;9.900;2023-06-22T06:56:59;34.90;41.50
39325;DHT22;25037;49.488;9.900;2023-06-22T06:59:26;34.70;42.00
39325;DHT22;25037;49.488;9.900;2023-06-22T07:01:53;34.40;42.30
39325;DHT22;25037;49.488;9.900;2023-06-22T07:04:19;34.30;42.50
39325;DHT22;25037;49.488;9.900;2023-06-22T07:06:46;34.20;42.80
39325;DHT22;25037;49.488;9.900;2023-06-22T07:09:13;34.00;43.40
39325;DHT22;25037;49.488;9.900;2023-06-22T07:11:39;34.10;43.30
39325;DHT22;25037;49.488;9.900;2023-06-22T07:14:06;34.00;43.20
39325;DHT22;25037;49.488;9.900;2023-06-22T07:16:33;33.90;43.50
39325;DHT22;25037;49.488;9.900;2023-06-22T07:18:59;33.80;43.60
39325;DHT22;25037;49.488;9.900;2023-06-22T07:21:27;33.70;44.00
39325;DHT22;25037;49.488;9.900;2023-06-22T07:23:53;33.80;43.80
39325;DHT22;25037;49.488;9.900;2023-06-22T07:26:21;33.90;43.90
39325;DHT22;25037;49.488;9.900;2023-06-22T07:28:48;33.80;43.70
39325;DHT22;25037;49.488;9.900;2023-06-22T07:31:15;33.80;43.80
39325;DHT22;25037;49.488;9.900;2023-06-22T07:33:42;33.70;43.90
39325;DHT22;25037;49.488;9.900;2023-06-22T07:36:08;33.70;44.20
39325;DHT22;25037;49.488;9.900;2023-06-22T07:38:35;33.70;44.30
39325;DHT22;25037;49.488;9.900;2023-06-22T07:41:02;33.70;44.10
39325;DHT22;25037;49.488;9.900;2023-06-22T07:43:32;33.80;44.20
39325;DHT22;25037;49.488;9.900;2023-06-22T07:46:00;33.70;44.20
39325;DHT22;25037;49.488;9.900;2023-06-22T07:48:27;33.80;44.20
39325;DHT22;25037;49.488;9.900;2023-06-22T07:50:54;34.00;44.20
39325;DHT22;25037;49.488;9.900;2023-06-22T07:53:21;34.10;44.00
39325;DHT22;25037;49.488;9.900;2023-06-22T07:55:50;34.00;43.90
39325;DHT22;25037;49.488;9.900;2023-06-22T07:58:16;34.00;43.90
39325;DHT22;25037;49.488;9.900;2023-06-22T08:00:45;33.80;43.90
39325;DHT22;25037;49.488;9.900;2023-06-22T08:03:12;33.70;44.00
39325;DHT22;25037;49.488;9.900;2023-06-22T08:05:39;33.60;44.20
39325;DHT22;25037;49.488;9.900;2023-06-22T08:08:06;33.50;44.40
39325;DHT22;25037;49.488;9.900;2023-06-22T08:10:32;33.50;44.50
39325;DHT22;25037;49.488;9.900;2023-06-22T08:12:59;33.50;44.10
39325;DHT22;25037;49.488;9.900;2023-06-22T08:15:26;33.40;44.30
39325;DHT22;25037;49.488;9.900;2023-06-22T08:17:53;33.50;44.20
39325;DHT22;25037;49.488;9.900;2023-06-22T08:20:20;33.60;44.20
39325;DHT22;25037;49.488;9.900;2023-06-22T08:22:47;33.70;43.70
39325;DHT22;25037;49.488;9.900;2023-06-22T08:25:14;33.70;43.60
39325;DHT22;25037;49.488;9.900;2023-06-22T08:27:45;33.70;43.60
39325;DHT22;25037;49.488;9.900;2023-06-22T08:30:12;33.70;43.60
39325;DHT22;25037;49.488;9.900;2023-06-22T08:32:39;33.80;43.80
39325;DHT22;25037;49.488;9.900;2023-06-22T08:35:06;33.90;43.60
39325;DHT22;25037;49.488;9.900;2023-06-22T08:37:35;34.10;43.60
39325;DHT22;25037;49.488;9.900;2023-06-22T08:40:05;34.20;43.10
39325;DHT22;25037;49.488;9.900;2023-06-22T08:42:32;34.20;42.60
39325;DHT22;25037;49.488;9.900;2023-06-22T08:44:59;34.20;42.70
39325;DHT22;25037;49.488;9.900;2023-06-22T08:47:27;34.20;42.60
39325;DHT22;25037;49.488;9.900;2023-06-22T08:49:54;34.30;43.00
39325;DHT22;25037;49.488;9.900;2023-06-22T08:52:21;34.50;42.80
39325;DHT22;25037;49.488;9.900;2023-06-22T08:54:47;34.50;42.30
39325;DHT22;25037;49.488;9.900;2023-06-22T08:57:14;34.60;42.20
39325;DHT22;25037;49.488;9.900;2023-06-22T08:59:41;34.60;41.90
39325;DHT22;25037;49.488;9.900;2023-06-22T09:02:08;34.60;42.00
39325;DHT22;25037;49.488;9.900;2023-06-22T09:04:35;34.70;41.80
39325;DHT22;25037;49.488;9.900;2023-06-22T09:07:03;34.90;41.40
39325;DHT22;25037;49.488;9.900;2023-06-22T09:09:29;34.90;41.20
39325;DHT22;25037;49.488;9.900;2023-06-22T09:11:56;35.00;40.30
39325;DHT22;25037;49.488;9.900;2023-06-22T09:14:23;35.10;39.80
39325;DHT22;25037;49.488;9.900;2023-06-22T09:16:49;35.10;40.00
39325;DHT22;25037;49.488;9.900;2023-06-22T09:19:16;35.20;39.90
39325;DHT22;25037;49.488;9.900;2023-06-22T09:21:43;35.40;39.70
39325;DHT22;25037;49.488;9.900;2023-06-22T09:24:09;35.40;39.30
39325;DHT22;25037;49.488;9.900;2023-06-22T09:26:36;35.50;38.70
39325;DHT22;25037;49.488;9.900;2023-06-22T09:29:05;35.70;38.60
39325;DHT22;25037;49.488;9.900;2023-06-22T09:31:32;35.80;38.30
39325;DHT22;25037;49.488;9.900;2023-06-22T09:33:59;36.00;38.20
39325;DHT22;25037;49.488;9.900;2023-06-22T09:36:26;36.00;38.00
39325;DHT22;25037;49.488;9.900;2023-06-22T09:38:52;36.20;37.20
39325;DHT22;25037;49.488;9.900;2023-06-22T09:41:22;36.20;36.80
39325;DHT22;25037;49.488;9.900;2023-06-22T09:43:49;36.30;36.20
39325;DHT22;25037;49.488;9.900;2023-06-22T09:46:16;36.40;36.20
39325;DHT22;25037;49.488;9.900;2023-06-22T09:48:43;36.50;36.30
39325;DHT22;25037;49.488;9.900;2023-06-22T09:51:10;36.60;36.10
39325;DHT22;25037;49.488;9.900;2023-06-22T09:53:36;36.70;35.80
39325;DHT22;25037;49.488;9.900;2023-06-22T09:56:04;36.70;36.10
39325;DHT22;25037;49.488;9.900;2023-06-22T09:58:32;36.70;35.90
39325;DHT22;25037;49.488;9.900;2023-06-22T10:00:59;36.70;35.90
39325;DHT22;25037;49.488;9.900;2023-06-22T10:03:26;36.70;35.80
39325;DHT22;25037;49.488;9.900;2023-06-22T10:05:53;36.90;35.60
39325;DHT22;25037;49.488;9.900;2023-06-22T10:08:19;37.00;34.80
39325;DHT22;25037;49.488;9.900;2023-06-22T10:10:47;37.00;34.80
39325;DHT22;25037;49.488;9.900;2023-06-22T10:13:14;37.10;35.00
39325;DHT22;25037;49.488;9.900;2023-06-22T10:15:41;37.20;35.10
39325;DHT22;25037;49.488;9.900;2023-06-22T10:18:08;37.20;34.90
39325;DHT22;25037;49.488;9.900;2023-06-22T10:20:35;37.40;35.00
39325;DHT22;25037;49.488;9.900;2023-06-22T10:23:02;37.50;34.80
39325;DHT22;25037;49.488;9.900;2023-06-22T10:25:29;37.60;35.20
39325;DHT22;25037;49.488;9.900;2023-06-22T10:27:56;37.70;35.00
39325;DHT22;25037;49.488;9.900;2023-06-22T10:30:23;37.80;34.50
39325;DHT22;25037;49.488;9.900;2023-06-22T10:32:50;38.00;34.00
39325;DHT22;25037;49.488;9.900;2023-06-22T10:35:17;38.00;34.10
39325;DHT22;25037;49.488;9.900;2023-06-22T10:37:45;38.00;34.20
39325;DHT22;25037;49.488;9.900;2023-06-22T10:40:16;38.00;33.90
39325;DHT22;25037;49.488;9.900;2023-06-22T10:42:43;37.80;33.70
39325;DHT22;25037;49.488;9.900;2023-06-22T10:45:10;37.60;33.90
39325;DHT22;25037;49.488;9.900;2023-06-22T10:47:37;37.50;34.20
39325;DHT22;25037;49.488;9.900;2023-06-22T10:50:05;37.50;34.30
39325;DHT22;25037;49.488;9.900;2023-06-22T10:52:32;37.80;34.70
39325;DHT22;25037;49.488;9.900;2023-06-22T10:54:59;38.20;34.10
39325;DHT22;25037;49.488;9.900;2023-06-22T10:57:26;38.40;33.70
39325;DHT22;25037;49.488;9.900;2023-06-22T10:59:52;38.50;33.90
39325;DHT22;25037;49.488;9.900;2023-06-22T11:02:19;38.50;33.40
39325;DHT22;25037;49.488;9.900;2023-06-22T11:04:46;38.40;33.90
39325;DHT22;25037;49.488;9.900;2023-06-22T11:07:14;38.40;34.10
39325;DHT22;25037;49.488;9.900;2023-06-22T11:09:43;38.40;33.80
39325;DHT22;25037;49.488;9.900;2023-06-22T11:12:10;38.30;33.30
39325;DHT22;25037;49.488;9.900;2023-06-22T11:14:38;38.20;33.30
39325;DHT22;25037;49.488;9.900;2023-06-22T11:17:05;38.20;33.50
39325;DHT22;25037;49.488;9.900;2023-06-22T11:19:32;38.20;33.70
39325;DHT22;25037;49.488;9.900;2023-06-22T11:21:58;38.20;34.10
39325;DHT22;25037;49.488;9.900;2023-06-22T11:24:25;38.20;34.10
39325;DHT22;25037;49.488;9.900;2023-06-22T11:26:52;38.20;34.10
39325;DHT22;25037;49.488;9.900;2023-06-22T11:29:18;38.20;34.50
39325;DHT22;25037;49.488;9.900;2023-06-22T11:32:02;38.40;34.00
39325;DHT22;25037;49.488;9.900;2023-06-22T11:34:29;38.50;33.30
39325;DHT22;25037;49.488;9.900;2023-06-22T11:36:56;38.60;33.40
39325;DHT22;25037;49.488;9.900;2023-06-22T11:39:23;38.70;33.20
39325;DHT22;25037;49.488;9.900;2023-06-22T11:42:07;38.80;32.70
39325;DHT22;25037;49.488;9.900;2023-06-22T11:44:33;38.70;32.80
39325;DHT22;25037;49.488;9.900;2023-06-22T11:47:00;38.70;32.70
39325;DHT22;25037;49.488;9.900;2023-06-22T11:49:27;38.70;32.60
39325;DHT22;25037;49.488;9.900;2023-06-22T11:51:54;38.70;32.80
39325;DHT22;25037;49.488;9.900;2023-06-22T11:54:21;38.60;32.60
39325;DHT22;25037;49.488;9.900;2023-06-22T11:56:47;38.60;32.80
39325;DHT22;25037;49.488;9.900;2023-06-22T11:59:14;38.60;33.10
39325;DHT22;25037;49.488;9.900;2023-06-22T12:01:41;38.40;32.80
39325;DHT22;25037;49.488;9.900;2023-06-22T12:04:07;38.30;33.00
39325;DHT22;25037;49.488;9.900;2023-06-22T12:06:38;38.20;33.20
39325;DHT22;25037;49.488;9.900;2023-06-22T12:09:08;38.20;33.30
39325;DHT22;25037;49.488;9.900;2023-06-22T12:11:35;38.30;33.10
39325;DHT22;25037;49.488;9.900;2023-06-22T12:14:02;38.30;33.30
39325;DHT22;25037;49.488;9.900;2023-06-22T12:16:29;38.30;33.60
39325;DHT22;25037;49.488;9.900;2023-06-22T12:18:56;38.30;33.90
39325;DHT22;25037;49.488;9.900;2023-06-22T12:21:22;38.50;33.80
39325;DHT22;25037;49.488;9.900;2023-06-22T12:23:49;38.50;33.60
39325;DHT22;25037;49.488;9.900;2023-06-22T12:26:16;38.50;33.50
39325;DHT22;25037;49.488;9.900;2023-06-22T12:28:43;38.60;33.80
39325;DHT22;25037;49.488;9.900;2023-06-22T12:31:09;38.60;33.50
39325;DHT22;25037;49.488;9.900;2023-06-22T12:33:36;38.40;33.80
39325;DHT22;25037;49.488;9.900;2023-06-22T12:36:03;38.30;34.40
39325;DHT22;25037;49.488;9.900;2023-06-22T12:38:31;38.30;34.60
39325;DHT22;25037;49.488;9.900;2023-06-22T12:40:58;38.30;34.50
39325;DHT22;25037;49.488;9.900;2023-06-22T12:43:24;38.30;34.80
39325;DHT22;25037;49.488;9.900;2023-06-22T12:45:51;38.40;34.70
39325;DHT22;25037;49.488;9.900;2023-06-22T12:48:21;38.50;34.80
39325;DHT22;25037;49.488;9.900;2023-06-22T12:50:48;38.70;34.50
39325;DHT22;25037;49.488;9.900;2023-06-22T12:53:15;38.90;34.10
39325;DHT22;25037;49.488;9.900;2023-06-22T12:55:41;39.10;33.80
39325;DHT22;25037;49.488;9.900;2023-06-22T12:58:08;39.20;33.30
39325;DHT22;25037;49.488;9.900;2023-06-22T13:00:35;39.20;33.50
39325;DHT22;25037;49.488;9.900;2023-06-22T13:03:02;39.20;33.20
39325;DHT22;25037;49.488;9.900;2023-06-22T13:05:29;39.20;32.80
39325;DHT22;25037;49.488;9.900;2023-06-22T13:07:57;39.20;32.90
39325;DHT22;25037;49.488;9.900;2023-06-22T13:10:23;39.20;33.30
39325;DHT22;25037;49.488;9.900;2023-06-22T13:12:50;39.10;33.80
39325;DHT22;25037;49.488;9.900;2023-06-22T13:15:17;38.90;33.90
39325;DHT22;25037;49.488;9.900;2023-06-22T13:17:43;38.70;33.90
39325;DHT22;25037;49.488;9.900;2023-06-22T13:20:10;38.70;33.80
39325;DHT22;25037;49.488;9.900;2023-06-22T13:22:37;38.70;33.70
39325;DHT22;25037;49.488;9.900;2023-06-22T13:25:07;38.70;33.50
39325;DHT22;25037;49.488;9.900;2023-06-22T13:27:33;38.90;33.70
39325;DHT22;25037;49.488;9.900;2023-06-22T13:30:00;39.00;33.60
39325;DHT22;25037;49.488;9.900;2023-06-22T13:32:29;39.10;33.90
39325;DHT22;25037;49.488;9.900;2023-06-22T13:34:55;39.10;34.50
39325;DHT22;25037;49.488;9.900;2023-06-22T13:37:22;39.00;34.60
39325;DHT22;25037;49.488;9.900;2023-06-22T13:39:49;38.90;34.50
39325;DHT22;25037;49.488;9.900;2023-06-22T13:42:15;38.90;34.80
39325;DHT22;25037;49.488;9.900;2023-06-22T13:44:42;38.80;34.40
39325;DHT22;25037;49.488;9.900;2023-06-22T13:47:09;38.70;34.10
39325;DHT22;25037;49.488;9.900;2023-06-22T13:49:36;38.70;33.80
39325;DHT22;25037;49.488;9.900;2023-06-22T13:52:03;38.60;34.10
39325;DHT22;25037;49.488;9.900;2023-06-22T13:54:30;38.60;35.00
39325;DHT22;25037;49.488;9.900;2023-06-22T13:57:00;38.60;35.20
39325;DHT22;25037;49.488;9.900;2023-06-22T13:59:26;38.60;34.80
39325;DHT22;25037;49.488;9.900;2023-06-22T14:01:54;38.70;34.50
39325;DHT22;25037;49.488;9.900;2023-06-22T14:04:23;38.80;34.10
39325;DHT22;25037;49.488;9.900;2023-06-22T14:06:50;38.90;34.20
39325;DHT22;25037;49.488;9.900;2023-06-22T14:09:16;39.00;34.00
39325;DHT22;25037;49.488;9.900;2023-06-22T14:11:43;39.00;33.60
39325;DHT22;25037;49.488;9.900;2023-06-22T14:14:10;39.00;33.60
39325;DHT22;25037;49.488;9.900;2023-06-22T14:16:36;39.00;33.50
39325;DHT22;25037;49.488;9.900;2023-06-22T14:19:03;39.00;33.70
39325;DHT22;25037;49.488;9.900;2023-06-22T14:21:30;39.00;33.60
39325;DHT22;25037;49.488;9.900;2023-06-22T14:23:57;39.00;33.50
39325;DHT22;25037;49.488;9.900;2023-06-22T14:26:24;38.90;33.30
39325;DHT22;25037;49.488;9.900;2023-06-22T14:28:52;38.90;33.50
39325;DHT22;25037;49.488;9.900;2023-06-22T14:31:19;38.80;33.40
39325;DHT22;25037;49.488;9.900;2023-06-22T14:33:48;38.70;33.40
39325;DHT22;25037;49.488;9.900;2023-06-22T14:36:18;38.70;33.60
39325;DHT22;25037;49.488;9.900;2023-06-22T14:38:45;38.70;33.20
39325;DHT22;25037;49.488;9.900;2023-06-22T14:41:13;38.70;33.10
39325;DHT22;25037;49.488;9.900;2023-06-22T14:43:50;38.70;32.30
39325;DHT22;25037;49.488;9.900;2023-06-22T14:46:19;38.70;31.10
39325;DHT22;25037;49.488;9.900;2023-06-22T14:48:47;38.70;31.20
39325;DHT22;25037;49.488;9.900;2023-06-22T14:51:14;38.70;30.40
39325;DHT22;25037;49.488;9.900;2023-06-22T14:53:45;38.80;29.70
39325;DHT22;25037;49.488;9.900;2023-06-22T14:56:12;38.90;30.10
39325;DHT22;25037;49.488;9.900;2023-06-22T14:58:40;38.90;29.70
39325;DHT22;25037;49.488;9.900;2023-06-22T15:01:07;39.10;29.50
39325;DHT22;25037;49.488;9.900;2023-06-22T15:03:35;39.20;30.00
39325;DHT22;25037;49.488;9.900;2023-06-22T15:06:03;39.20;29.30
39325;DHT22;25037;49.488;9.900;2023-06-22T15:08:30;39.20;28.30
39325;DHT22;25037;49.488;9.900;2023-06-22T15:11:00;39.20;28.10
39325;DHT22;25037;49.488;9.900;2023-06-22T15:13:31;39.10;27.70
39325;DHT22;25037;49.488;9.900;2023-06-22T15:16:02;39.00;27.70
39325;DHT22;25037;49.488;9.900;2023-06-22T15:18:32;38.90;27.80
39325;DHT22;25037;49.488;9.900;2023-06-22T15:21:03;38.90;27.80
39325;DHT22;25037;49.488;9.900;2023-06-22T15:23:30;38.90;27.50
39325;DHT22;25037;49.488;9.900;2023-06-22T15:25:58;39.00;27.90
39325;DHT22;25037;49.488;9.900;2023-06-22T15:28:25;39.00;27.70
39325;DHT22;25037;49.488;9.900;2023-06-22T15:30:52;39.00;27.30
39325;DHT22;25037;49.488;9.900;2023-06-22T15:33:19;38.90;27.10
39325;DHT22;25037;49.488;9.900;2023-06-22T15:35:46;38.80;27.30
39325;DHT22;25037;49.488;9.900;2023-06-22T15:38:13;38.60;27.30
39325;DHT22;25037;49.488;9.900;2023-06-22T15:40:39;38.30;27.50
39325;DHT22;25037;49.488;9.900;2023-06-22T15:43:10;38.20;27.40
39325;DHT22;25037;49.488;9.900;2023-06-22T15:45:37;38.00;27.80